Friday, November 24, 2017, 1:13 PM GMT
Back to Local

CWQH, Lennoxville

Location: , , Canada Lat: 45.367
Local Time: 1:13 PM GMT (13:13 GMT) Lon: -71.817
Time Zone: GMT Elev: 593 ft

Show me the last for .
Show Coded

Time T Td Feel RH Dir Speed Gust Alt SLP Vis Weather Sky Remarks
2017-11-24 12:00 32 32 26 100 200° 6 - - - 0 None
2017-11-24 11:00 31 31 24 100 200° 8 - - - 0 None
2017-11-24 10:00 31 31 23 99 200° 9 - - - 0 None
2017-11-24 09:00 31 30 22 96 210° 10 - - - 0 None
2017-11-24 08:00 32 27 22 81 210° 14 - - - 0 Peak wind: 20 mph (18 kts) from 220° at 13 min
2017-11-24 07:00 31 26 22 78 220° 13 - - - 0 None
2017-11-24 06:00 30 24 22 75 190° 9 - - - 0 None
2017-11-24 05:00 30 22 22 72 190° 9 - - - 0 None
2017-11-24 04:00 30 21 21 70 190° 10 - - - 0 None
2017-11-24 03:00 29 21 21 72 190° 8 - - - 0 None
2017-11-24 02:00 28 20 20 71 190° 8 - - - 0 None
2017-11-24 01:00 28 20 19 73 180° 8 - - - 0 None
2017-11-24 00:00 27 20 18 73 190° 8 - - - 0 None
2017-11-23 23:00 26 18 21 72 170° 5 - - - 0 None
2017-11-23 22:00 26 18 20 71 180° 5 - - - 0 None
2017-11-23 21:00 26 17 18 68 230° 7 - - - 0 None
2017-11-23 20:00 26 17 18 70 210° 7 - - - 0 None
2017-11-23 19:00 25 17 17 69 210° 8 - - - 0 None
2017-11-23 18:00 24 16 15 71 220° 9 - - - 0 None
2017-11-23 17:00 24 17 14 75 210° 9 - - - 0 None
2017-11-23 16:00 24 16 16 70 260° 7 - - - 0 None
2017-11-23 15:00 22 16 12 78 280° 9 - - - 0 None
2017-11-23 14:00 21 15 11 78 280° 9 - - - 0 None

Support USWX by starting your Amazon purchase here.